createdAt,value
2022-10-23T00:00:51.540Z,1
2022-10-23T00:02:51.635Z,1
2022-10-23T00:04:52.904Z,1
2022-10-23T00:06:55.535Z,1
2022-10-23T00:08:58.115Z,1
2022-10-23T00:10:51.380Z,1
2022-10-23T00:12:51.857Z,1
2022-10-23T00:14:51.664Z,1
2022-10-23T00:16:58.247Z,1
2022-10-23T00:18:55.089Z,1
2022-10-23T00:24:51.705Z,1
2022-10-23T00:26:51.446Z,1
2022-10-23T00:28:55.323Z,1
2022-10-23T00:30:51.636Z,1
2022-10-23T00:32:54.415Z,1
2022-10-23T00:34:54.950Z,1
2022-10-23T00:36:51.474Z,1
2022-10-23T00:38:51.389Z,1
2022-10-23T00:40:51.873Z,1
2022-10-23T00:42:56.609Z,1
2022-10-23T00:44:51.423Z,1
2022-10-23T00:46:51.440Z,1
2022-10-23T00:48:51.641Z,1
2022-10-23T00:50:51.395Z,1
2022-10-23T00:52:51.755Z,1
2022-10-23T00:54:58.115Z,1
2022-10-23T00:58:51.304Z,1
2022-10-23T01:00:51.462Z,1
2022-10-23T01:02:58.576Z,1
2022-10-23T01:04:51.523Z,1
2022-10-23T01:06:51.435Z,1
2022-10-23T01:08:56.775Z,1
2022-10-23T01:10:51.322Z,1
2022-10-23T01:14:51.406Z,1
2022-10-23T01:16:54.584Z,1
2022-10-23T01:18:51.759Z,1
2022-10-23T01:20:51.806Z,1
2022-10-23T01:22:54.612Z,1
2022-10-23T01:24:51.288Z,1
2022-10-23T01:26:51.500Z,1
2022-10-23T01:28:53.751Z,1
2022-10-23T01:30:51.474Z,1
2022-10-23T01:34:51.385Z,1
2022-10-23T01:36:51.450Z,1
2022-10-23T01:38:51.454Z,1
2022-10-23T01:40:51.902Z,1
2022-10-23T01:42:52.275Z,1
2022-10-23T01:44:51.448Z,1
2022-10-23T01:46:51.945Z,1
2022-10-23T01:48:55.509Z,1
2022-10-23T01:50:51.565Z,1
2022-10-23T01:52:54.491Z,1
2022-10-23T01:54:54.544Z,1
2022-10-23T01:56:51.712Z,1
2022-10-23T01:58:51.489Z,1
2022-10-23T02:00:52.124Z,1
2022-10-23T02:02:51.606Z,1
2022-10-23T02:04:55.216Z,1
2022-10-23T02:06:51.616Z,1
2022-10-23T02:08:51.999Z,1
2022-10-23T02:10:51.386Z,1
2022-10-23T02:12:51.366Z,1
2022-10-23T02:14:51.548Z,1
2022-10-23T02:16:51.283Z,1
2022-10-23T02:18:51.532Z,1
2022-10-23T02:20:51.317Z,1
2022-10-23T02:22:51.848Z,1
2022-10-23T02:24:51.483Z,1
2022-10-23T02:26:52.871Z,1
2022-10-23T02:28:51.298Z,1
2022-10-23T02:30:51.322Z,1
2022-10-23T02:32:51.465Z,1
2022-10-23T02:34:53.925Z,1
2022-10-23T02:36:51.432Z,1
2022-10-23T02:38:51.425Z,1
2022-10-23T02:42:51.409Z,1
2022-10-23T02:44:51.641Z,1
2022-10-23T02:46:54.698Z,1
2022-10-23T02:48:55.072Z,1
2022-10-23T02:52:54.968Z,1
2022-10-23T02:54:54.930Z,1
2022-10-23T02:56:52.215Z,1
2022-10-23T02:58:51.419Z,1
2022-10-23T03:00:55.762Z,1
2022-10-23T03:02:54.665Z,1
2022-10-23T03:04:51.466Z,1
2022-10-23T03:06:52.037Z,1
2022-10-23T03:08:51.559Z,1
2022-10-23T03:10:54.972Z,1
2022-10-23T03:12:51.401Z,1
2022-10-23T03:14:52.006Z,1
2022-10-23T03:16:51.432Z,1
2022-10-23T03:18:57.709Z,1
2022-10-23T03:20:51.615Z,1
2022-10-23T03:22:52.937Z,1
2022-10-23T03:24:51.429Z,1
2022-10-23T03:26:51.809Z,1
2022-10-23T03:28:52.013Z,1
2022-10-23T03:30:51.513Z,1
2022-10-23T03:32:55.164Z,1
2022-10-23T03:34:54.663Z,1
2022-10-23T03:36:51.427Z,1
2022-10-23T03:38:51.686Z,1
2022-10-23T03:40:52.288Z,1
2022-10-23T03:42:51.591Z,1
2022-10-23T03:44:51.317Z,1
2022-10-23T03:46:52.016Z,1
2022-10-23T03:48:55.068Z,1
2022-10-23T03:50:51.872Z,1
2022-10-23T03:52:51.767Z,1
2022-10-23T03:54:51.970Z,1
2022-10-23T03:56:53.756Z,1
2022-10-23T04:00:56.208Z,1
2022-10-23T04:02:54.991Z,1
2022-10-23T04:04:51.390Z,1
2022-10-23T04:06:51.485Z,1
2022-10-23T04:08:51.750Z,1
2022-10-23T04:10:54.779Z,1
2022-10-23T04:14:51.479Z,1
2022-10-23T04:16:55.242Z,1
2022-10-23T04:18:51.454Z,1
2022-10-23T04:20:52.527Z,1
2022-10-23T04:22:51.597Z,1
2022-10-23T04:24:53.732Z,1
2022-10-23T04:26:51.329Z,1
2022-10-23T04:28:51.524Z,1
2022-10-23T04:30:54.555Z,1
2022-10-23T04:32:51.444Z,1
2022-10-23T04:34:58.687Z,1
2022-10-23T04:38:51.476Z,1
2022-10-23T04:40:58.331Z,1
2022-10-23T04:42:51.410Z,1
2022-10-23T04:44:51.508Z,1
2022-10-23T04:46:51.522Z,1
2022-10-23T04:48:51.344Z,1
2022-10-23T04:50:55.159Z,1
2022-10-23T04:52:51.406Z,1
2022-10-23T04:54:52.089Z,1
2022-10-23T04:56:55.870Z,0
2022-10-23T04:58:51.415Z,0
2022-10-23T05:00:58.806Z,0
2022-10-23T05:02:51.445Z,0
2022-10-23T05:04:54.534Z,0.1
2022-10-23T05:06:50.042Z,0.2
2022-10-23T05:08:52.014Z,0.3
2022-10-23T05:10:51.493Z,0.4
2022-10-23T05:12:51.507Z,0.5
2022-10-23T05:14:49.888Z,0.7
2022-10-23T05:16:54.588Z,1.2
2022-10-23T05:18:51.351Z,1.6
2022-10-23T05:22:51.522Z,3.3
2022-10-23T05:24:51.840Z,4.7
2022-10-23T05:26:55.057Z,6.7
2022-10-23T05:28:54.989Z,10
2022-10-23T05:30:49.501Z,14.9
2022-10-23T05:32:54.767Z,21.1
2022-10-23T05:34:51.438Z,31.5
2022-10-23T05:36:55.050Z,44.7
2022-10-23T05:38:54.929Z,54.6
2022-10-23T05:42:51.444Z,81.5
2022-10-23T05:44:54.781Z,99.5
2022-10-23T05:46:51.853Z,121.5
2022-10-23T05:50:51.613Z,181.3
2022-10-23T05:52:55.310Z,210.6
2022-10-23T05:54:51.425Z,244.7
2022-10-23T05:56:52.007Z,284.3
2022-10-23T05:58:51.328Z,330.3
2022-10-23T06:00:51.625Z,383.8
2022-10-23T06:02:51.348Z,468.7
2022-10-23T06:04:51.620Z,544.6
2022-10-23T06:06:51.574Z,601.8
2022-10-23T06:08:54.840Z,699.2
2022-10-23T06:10:51.392Z,772.8
2022-10-23T06:12:53.365Z,854.1
2022-10-23T06:14:51.921Z,943.9
2022-10-23T06:16:51.509Z,1096.6
2022-10-23T06:18:51.584Z,1212
2022-10-23T06:20:52.911Z,1339.4
2022-10-23T06:22:51.322Z,1480.3
2022-10-23T06:24:52.071Z,1636
2022-10-23T06:26:55.236Z,1808
2022-10-23T06:28:57.804Z,1900.7
2022-10-23T06:30:51.420Z,1900.7
2022-10-23T06:32:51.430Z,1998.2
2022-10-23T06:34:59.933Z,1998.2
2022-10-23T06:36:58.740Z,1998.2
2022-10-23T06:38:54.817Z,2100.6
2022-10-23T06:40:51.673Z,2208.3
2022-10-23T06:42:52.973Z,2321.6
2022-10-23T06:44:51.528Z,2440.6
2022-10-23T06:46:51.551Z,2565.7
2022-10-23T06:48:52.999Z,2697.3
2022-10-23T06:50:49.331Z,2835.6
2022-10-23T06:52:51.986Z,2981
2022-10-23T06:54:51.897Z,3133.8
2022-10-23T06:56:51.472Z,3294.5
2022-10-23T06:58:54.631Z,3463.4
2022-10-23T07:00:51.493Z,3463.4
2022-10-23T07:02:51.744Z,3641
2022-10-23T07:04:51.470Z,3827.6
2022-10-23T07:06:51.580Z,4023.9
2022-10-23T07:08:51.428Z,4230.2
2022-10-23T07:10:51.545Z,4447.1
2022-10-23T07:12:51.991Z,4675.1
2022-10-23T07:14:51.462Z,4675.1
2022-10-23T07:16:54.699Z,5166.8
2022-10-23T07:18:51.477Z,5431.7
2022-10-23T07:20:51.643Z,5710.1
2022-10-23T07:22:51.605Z,6310.7
2022-10-23T07:24:51.495Z,9897.1
2022-10-23T07:26:53.717Z,19930.4
2022-10-23T07:28:51.479Z,22026.5
2022-10-23T07:30:54.681Z,18958.4
2022-10-23T07:32:51.608Z,20952.2
2022-10-23T07:34:55.459Z,18958.4
2022-10-23T07:36:51.435Z,24343
2022-10-23T07:38:54.538Z,22026.5
2022-10-23T07:40:54.954Z,23155.8
2022-10-23T07:42:58.458Z,20952.2
2022-10-23T07:44:54.691Z,16317.6
2022-10-23T07:46:51.581Z,17154.2
2022-10-23T07:48:53.989Z,18033.7
2022-10-23T07:50:53.398Z,20952.2
2022-10-23T07:52:51.602Z,20952.2
2022-10-23T07:54:58.471Z,25591.1
2022-10-23T07:58:51.567Z,25591.1
2022-10-23T08:00:51.855Z,26903.2
2022-10-23T08:02:51.967Z,28282.5
2022-10-23T08:04:51.724Z,25591.1
2022-10-23T08:06:51.957Z,32859.6
2022-10-23T08:08:52.643Z,34544.4
2022-10-23T08:12:51.611Z,29732.6
2022-10-23T08:14:51.688Z,28282.5
2022-10-23T08:16:53.450Z,28282.5
2022-10-23T08:18:51.749Z,28282.5
2022-10-23T08:20:52.077Z,28282.5
2022-10-23T08:22:55.158Z,24343
2022-10-23T08:24:55.074Z,25591.1
2022-10-23T08:26:51.700Z,28282.5
2022-10-23T08:28:51.569Z,31257
2022-10-23T08:30:58.464Z,32859.6
2022-10-23T08:35:56.947Z,29732.6
2022-10-23T08:42:38.071Z,31257
2022-10-23T08:42:43.910Z,25591.1
2022-10-23T08:48:28.787Z,29732.6
2022-10-23T08:50:24.713Z,36315.5
2022-10-23T08:52:28.365Z,23155.8
2022-10-23T08:54:26.941Z,32859.6
2022-10-23T08:56:27.860Z,31257
2022-10-23T08:58:25.280Z,26903.2
2022-10-23T09:00:28.400Z,31257
2022-10-23T09:02:25.655Z,26903.2
2022-10-23T09:04:28.894Z,31257
2022-10-23T09:06:31.587Z,31257
2022-10-23T09:08:25.301Z,31257
2022-10-23T09:10:32.051Z,28282.5
2022-10-23T09:12:35.158Z,31257
2022-10-23T09:16:25.103Z,36315.5
2022-10-23T09:18:26.177Z,44355.9
2022-10-23T09:20:30.077Z,46630
2022-10-23T09:22:25.687Z,42192.6
2022-10-23T09:24:33.235Z,46630
2022-10-23T09:26:25.194Z,46630
2022-10-23T09:30:32.254Z,59874.1
2022-10-23T09:32:32.371Z,59874.1
2022-10-23T09:36:25.330Z,62944
2022-10-23T09:38:27.503Z,62944
2022-10-23T09:40:28.754Z,59874.1
2022-10-23T09:42:25.297Z,66171.2
2022-10-23T09:44:25.508Z,66171.2
2022-10-23T09:46:25.384Z,66171.2
2022-10-23T09:48:33.887Z,66171.2
2022-10-23T09:50:24.889Z,66171.2
2022-10-23T09:52:26.999Z,38177.4
2022-10-23T09:54:24.930Z,42192.6
2022-10-23T09:56:26.904Z,42192.6
2022-10-23T09:58:28.575Z,46630
2022-10-23T10:02:24.632Z,76879.9
2022-10-23T10:04:33.054Z,73130.4
2022-10-23T10:06:25.459Z,73130.4
2022-10-23T10:08:26.557Z,73130.4
2022-10-23T10:10:28.697Z,76879.9
2022-10-23T10:12:28.618Z,76879.9
2022-10-23T10:16:28.568Z,76879.9
2022-10-23T10:18:25.727Z,76879.9
2022-10-23T10:20:30.156Z,76879.9
2022-10-23T10:22:25.854Z,76879.9
2022-10-23T10:24:24.617Z,76879.9
2022-10-23T10:28:32.096Z,76879.9
2022-10-23T10:30:25.457Z,80821.6
2022-10-23T10:32:25.886Z,80821.6
2022-10-23T10:34:25.640Z,80821.6
2022-10-23T10:36:30.935Z,80821.6
2022-10-23T10:38:31.398Z,80821.6
2022-10-23T10:40:25.590Z,80821.6
2022-10-23T10:42:24.811Z,80821.6
2022-10-23T10:44:26.990Z,76879.9
2022-10-23T10:46:29.246Z,80821.6
2022-10-23T10:48:25.685Z,73130.4
2022-10-23T10:50:32.642Z,76879.9
2022-10-23T10:52:28.746Z,69563.8
2022-10-23T10:54:25.460Z,76879.9
2022-10-23T10:56:30.838Z,73130.4
2022-10-23T10:58:32.160Z,76879.9
2022-10-23T11:00:32.487Z,69563.8
2022-10-23T11:02:25.772Z,66171.2
2022-10-23T11:04:31.370Z,54176.4
2022-10-23T11:06:35.775Z,56954
2022-10-23T11:08:28.807Z,54176.4
2022-10-23T11:10:25.895Z,56954
2022-10-23T11:12:28.804Z,54176.4
2022-10-23T11:14:25.729Z,42192.6
2022-10-23T11:16:38.589Z,36315.5
2022-10-23T11:18:28.814Z,42192.6
2022-10-23T11:20:25.412Z,44355.9
2022-10-23T11:22:25.625Z,49020.8
2022-10-23T11:24:29.283Z,54176.4
2022-10-23T11:26:32.396Z,54176.4
2022-10-23T11:28:25.198Z,42192.6
2022-10-23T11:30:25.147Z,51534.2
2022-10-23T11:32:26.390Z,54176.4
2022-10-23T11:36:32.222Z,29732.6
2022-10-23T11:38:25.563Z,31257
2022-10-23T11:40:25.735Z,23155.8
2022-10-23T11:42:31.769Z,18958.4
2022-10-23T11:44:32.093Z,24343
2022-10-23T11:46:29.458Z,15521.8
2022-10-23T11:50:26.039Z,16317.6
2022-10-23T11:52:25.847Z,19930.4
2022-10-23T11:54:26.420Z,24343
2022-10-23T11:56:31.464Z,26903.2
2022-10-23T11:58:32.986Z,51534.2
2022-10-23T12:00:26.363Z,42192.6
2022-10-23T12:02:26.456Z,46630
2022-10-23T12:04:29.532Z,32859.6
2022-10-23T12:06:25.587Z,23155.8
2022-10-23T12:10:26.398Z,25591.1
2022-10-23T12:12:26.217Z,14764.8
2022-10-23T12:14:34.706Z,16317.6
2022-10-23T12:16:32.691Z,18958.4
2022-10-23T12:18:29.015Z,15521.8
2022-10-23T12:20:29.376Z,13359.7
2022-10-23T12:22:29.348Z,11498.8
2022-10-23T12:24:26.206Z,10404.6
2022-10-23T12:26:32.745Z,8103.1
2022-10-23T12:28:26.092Z,7707.9
2022-10-23T12:30:24.697Z,8518.5
2022-10-23T12:32:27.963Z,10404.6
2022-10-23T12:34:29.447Z,11498.8
2022-10-23T12:36:26.039Z,8518.5
2022-10-23T12:38:32.561Z,10404.6
2022-10-23T12:42:32.786Z,8955.3
2022-10-23T12:44:29.734Z,28282.5
2022-10-23T12:46:28.587Z,34544.4
2022-10-23T12:48:26.542Z,18033.7
2022-10-23T12:50:26.828Z,10938
2022-10-23T12:52:26.931Z,9897.1
2022-10-23T12:54:36.711Z,9414.4
2022-10-23T12:56:37.051Z,10938
2022-10-23T12:58:26.533Z,10404.6
2022-10-23T13:00:26.255Z,10404.6
2022-10-23T13:02:27.228Z,11498.8
2022-10-23T13:04:26.249Z,16317.6
2022-10-23T13:06:25.371Z,16317.6
2022-10-23T13:08:30.106Z,15521.8
2022-10-23T13:10:25.203Z,14764.8
2022-10-23T13:12:33.550Z,12708.2
2022-10-23T13:14:30.339Z,12708.2
2022-10-23T13:16:26.513Z,14044.7
2022-10-23T13:18:34.339Z,36315.5
2022-10-23T13:20:26.707Z,19930.4
2022-10-23T13:22:25.436Z,32859.6
2022-10-23T13:24:27.027Z,34544.4
2022-10-23T13:26:26.476Z,18958.4
2022-10-23T13:28:26.769Z,19930.4
2022-10-23T13:30:40.580Z,51534.2
2022-10-23T13:32:25.641Z,54176.4
2022-10-23T13:34:33.399Z,42192.6
2022-10-23T13:36:26.889Z,44355.9
2022-10-23T13:38:26.816Z,40134.8
2022-10-23T13:42:27.248Z,22026.5
2022-10-23T13:44:25.330Z,25591.1
2022-10-23T13:46:26.969Z,23155.8
2022-10-23T13:48:33.585Z,18033.7
2022-10-23T13:50:27.311Z,12088.4
2022-10-23T13:52:26.883Z,9897.1
2022-10-23T13:56:26.791Z,7707.9
2022-10-23T13:58:26.853Z,9897.1
2022-10-23T14:00:30.520Z,9414.4
2022-10-23T14:02:26.896Z,8518.5
2022-10-23T14:04:33.526Z,8518.5
2022-10-23T14:06:29.992Z,8103.1
2022-10-23T14:08:30.248Z,7707.9
2022-10-23T14:12:33.753Z,6634.2
2022-10-23T14:14:26.633Z,6634.2
2022-10-23T14:16:30.761Z,9414.4
2022-10-23T14:18:26.228Z,7332
2022-10-23T14:20:27.852Z,6002.9
2022-10-23T14:24:26.606Z,4914.8
2022-10-23T14:26:33.903Z,4675.1
2022-10-23T14:28:33.553Z,4675.1
2022-10-23T14:30:33.769Z,4675.1
2022-10-23T14:32:26.320Z,4447.1
2022-10-23T14:36:28.330Z,3827.6
2022-10-23T14:38:30.151Z,3641
2022-10-23T14:40:25.929Z,3294.5
2022-10-23T14:42:29.397Z,3133.8
2022-10-23T14:44:33.724Z,2981
2022-10-23T14:46:26.546Z,2697.3
2022-10-23T14:48:27.066Z,2697.3
2022-10-23T14:52:25.648Z,2440.6
2022-10-23T14:54:25.748Z,2100.6
2022-10-23T14:56:30.492Z,1719.9
2022-10-23T14:58:34.622Z,1480.3
2022-10-23T15:00:33.526Z,1408.1
2022-10-23T15:02:24.803Z,1339.4
2022-10-23T15:04:26.928Z,1274.1
2022-10-23T15:06:26.598Z,1212
2022-10-23T15:08:33.585Z,1152.9
2022-10-23T15:10:29.688Z,1096.6
2022-10-23T15:12:30.691Z,1043.1
2022-10-23T15:14:26.377Z,1043.1
2022-10-23T15:16:26.819Z,992.3
2022-10-23T15:18:26.767Z,897.8
2022-10-23T15:20:27.560Z,854.1
2022-10-23T15:22:27.536Z,812.4
2022-10-23T15:24:26.798Z,699.2
2022-10-23T15:26:27.287Z,699.2
2022-10-23T15:28:27.015Z,665.1
2022-10-23T15:30:27.072Z,632.7
2022-10-23T15:32:26.792Z,544.6
2022-10-23T15:34:26.836Z,468.7
2022-10-23T15:36:25.483Z,445.9
2022-10-23T15:38:30.092Z,383.8
2022-10-23T15:40:26.947Z,347.2
2022-10-23T15:42:26.468Z,330.3
2022-10-23T15:44:27.261Z,347.2
2022-10-23T15:46:26.126Z,365
2022-10-23T15:48:37.080Z,365
2022-10-23T15:50:30.434Z,365
2022-10-23T15:52:26.607Z,314.2
2022-10-23T15:54:32.040Z,270.4
2022-10-23T15:58:25.823Z,172.4
2022-10-23T16:00:26.973Z,141.2
2022-10-23T16:02:25.921Z,115.6
2022-10-23T16:04:27.196Z,90
2022-10-23T16:06:26.241Z,66.7
2022-10-23T16:10:30.063Z,44.7
2022-10-23T16:14:25.598Z,44.7
2022-10-23T16:16:36.938Z,31.5
2022-10-23T16:18:26.921Z,24.5
2022-10-23T16:20:25.590Z,18.2
2022-10-23T16:22:26.500Z,13.5
2022-10-23T16:24:26.657Z,9
2022-10-23T16:26:34.151Z,6
2022-10-23T16:28:26.540Z,4.1
2022-10-23T16:30:30.240Z,2.7
2022-10-23T16:32:30.262Z,1.9
2022-10-23T16:34:30.163Z,1.3
2022-10-23T16:36:26.940Z,0.9
2022-10-23T16:38:26.329Z,0.7
2022-10-23T16:40:30.210Z,0.5
2022-10-23T16:42:33.787Z,0.4
2022-10-23T16:44:27.242Z,0.3
2022-10-23T16:46:26.951Z,0.2
2022-10-23T16:48:30.345Z,0.2
2022-10-23T16:50:36.931Z,0.1
2022-10-23T16:52:27.447Z,0
2022-10-23T16:54:26.650Z,0
2022-10-23T16:58:26.992Z,0
2022-10-23T17:00:30.378Z,0
2022-10-23T17:02:33.732Z,1
2022-10-23T17:04:26.758Z,1
2022-10-23T17:06:26.842Z,1
2022-10-23T17:08:26.642Z,1
2022-10-23T17:10:26.678Z,1
2022-10-23T17:12:26.966Z,1
2022-10-23T17:14:36.858Z,1
2022-10-23T17:16:27.373Z,1
2022-10-23T17:18:25.920Z,1
2022-10-23T17:20:27.948Z,1
2022-10-23T17:22:27.061Z,1
2022-10-23T17:24:33.370Z,1
2022-10-23T17:26:27.239Z,1
2022-10-23T17:28:34.287Z,1
2022-10-23T17:30:26.622Z,1
2022-10-23T17:32:27.538Z,1
2022-10-23T17:34:27.533Z,1
2022-10-23T17:36:27.119Z,1
2022-10-23T17:38:26.925Z,1
2022-10-23T17:42:30.339Z,1
2022-10-23T17:44:25.767Z,1
2022-10-23T17:46:26.138Z,1
2022-10-23T17:48:30.646Z,1
2022-10-23T17:50:29.062Z,1
2022-10-23T17:52:30.279Z,1
2022-10-23T17:54:27.064Z,1
2022-10-23T17:56:26.986Z,1
2022-10-23T17:58:31.827Z,1
2022-10-23T18:00:26.878Z,1
2022-10-23T18:02:26.667Z,1
2022-10-23T18:04:26.959Z,1
2022-10-23T18:06:28.885Z,1
2022-10-23T18:08:27.301Z,1
2022-10-23T18:10:27.970Z,1
2022-10-23T18:12:27.471Z,1
2022-10-23T18:14:28.462Z,1
2022-10-23T18:16:24.720Z,1
2022-10-23T18:20:27.057Z,1
2022-10-23T18:22:27.351Z,1
2022-10-23T18:24:27.516Z,1
2022-10-23T18:26:30.168Z,1
2022-10-23T18:28:26.858Z,1
2022-10-23T18:30:30.424Z,1
2022-10-23T18:32:33.655Z,1
2022-10-23T18:34:26.677Z,1
2022-10-23T18:38:27.154Z,1
2022-10-23T18:40:33.847Z,1
2022-10-23T18:42:27.863Z,1
2022-10-23T18:44:27.002Z,1
2022-10-23T18:46:26.296Z,1
2022-10-23T18:48:27.903Z,1
2022-10-23T18:50:25.817Z,1
2022-10-23T18:52:30.680Z,1
2022-10-23T18:54:27.144Z,1
2022-10-23T18:56:27.385Z,1
2022-10-23T18:58:25.663Z,1
2022-10-23T19:00:27.869Z,1
2022-10-23T19:02:26.786Z,1
2022-10-23T19:04:26.163Z,1
2022-10-23T19:06:30.647Z,1
2022-10-23T19:08:27.193Z,1
2022-10-23T19:10:25.298Z,1
2022-10-23T19:12:27.276Z,1
2022-10-23T19:14:27.321Z,1
2022-10-23T19:16:27.156Z,1
2022-10-23T19:20:25.789Z,1
2022-10-23T19:22:33.494Z,1
2022-10-23T19:24:27.324Z,1
2022-10-23T19:26:30.359Z,1
2022-10-23T19:28:26.853Z,1
2022-10-23T19:30:30.569Z,1
2022-10-23T19:32:25.898Z,1
2022-10-23T19:34:27.567Z,1
2022-10-23T19:36:29.687Z,1
2022-10-23T19:38:30.089Z,1
2022-10-23T19:40:27.136Z,1
2022-10-23T19:42:26.922Z,1
2022-10-23T19:44:36.838Z,1
2022-10-23T19:46:27.311Z,1
2022-10-23T19:48:30.182Z,1
2022-10-23T19:50:29.775Z,1
2022-10-23T19:52:31.064Z,1
2022-10-23T19:54:25.617Z,1
2022-10-23T19:56:27.610Z,1
2022-10-23T19:58:29.424Z,1
2022-10-23T20:00:26.848Z,1
2022-10-23T20:02:27.207Z,1
2022-10-23T20:04:30.083Z,1
2022-10-23T20:06:28.980Z,1
2022-10-23T20:08:29.115Z,1
2022-10-23T20:10:33.691Z,1
2022-10-23T20:12:30.075Z,1
2022-10-23T20:14:26.932Z,1
2022-10-23T20:16:27.411Z,1
2022-10-23T20:18:29.638Z,1
2022-10-23T20:20:27.512Z,1
2022-10-23T20:22:27.677Z,1
2022-10-23T20:24:36.950Z,1
2022-10-23T20:26:30.641Z,1
2022-10-23T20:28:27.269Z,1
2022-10-23T20:30:25.864Z,1
2022-10-23T20:32:30.560Z,1
2022-10-23T20:34:30.435Z,1
2022-10-23T20:36:27.389Z,1
2022-10-23T20:38:27.113Z,1
2022-10-23T20:40:33.854Z,1
2022-10-23T20:42:25.957Z,1
2022-10-23T20:44:27.303Z,1
2022-10-23T20:46:27.108Z,1
2022-10-23T20:48:26.035Z,1
2022-10-23T20:50:27.198Z,1
2022-10-23T20:52:27.180Z,1
2022-10-23T20:54:26.501Z,1
2022-10-23T20:56:26.902Z,1
2022-10-23T20:58:26.061Z,1
2022-10-23T21:00:26.786Z,1
2022-10-23T21:02:30.353Z,1
2022-10-23T21:04:25.846Z,1
2022-10-23T21:06:45.610Z,1
2022-10-23T21:08:25.413Z,1
2022-10-23T21:10:26.779Z,1
2022-10-23T21:12:27.332Z,1
2022-10-23T21:14:30.297Z,1
2022-10-23T21:16:28.425Z,1
2022-10-23T21:18:44.729Z,1
2022-10-23T21:20:37.075Z,1
2022-10-23T21:22:27.457Z,1
2022-10-23T21:24:26.278Z,1
2022-10-23T21:26:31.071Z,1
2022-10-23T21:28:27.273Z,1
2022-10-23T21:32:26.805Z,1
2022-10-23T21:34:27.657Z,1
2022-10-23T21:38:26.371Z,1
2022-10-23T21:40:27.758Z,1
2022-10-23T21:42:26.166Z,1
2022-10-23T21:44:27.023Z,1
2022-10-23T21:46:28.372Z,1
2022-10-23T21:48:26.810Z,1
2022-10-23T21:50:27.504Z,1
2022-10-23T21:52:32.496Z,1
2022-10-23T21:54:27.018Z,1
2022-10-23T21:56:30.538Z,1
2022-10-23T21:58:26.435Z,1
2022-10-23T22:00:26.449Z,1
2022-10-23T22:02:30.229Z,1
2022-10-23T22:04:26.460Z,1
2022-10-23T22:06:27.795Z,1
2022-10-23T22:08:30.220Z,1
2022-10-23T22:10:26.601Z,1
2022-10-23T22:12:26.343Z,1
2022-10-23T22:14:27.363Z,1
2022-10-23T22:16:40.190Z,1
2022-10-23T22:18:25.999Z,1
2022-10-23T22:22:26.364Z,1
2022-10-23T22:24:27.721Z,1
2022-10-23T22:26:27.237Z,1
2022-10-23T22:28:30.450Z,1
2022-10-23T22:30:26.523Z,1
2022-10-23T22:32:26.683Z,1
2022-10-23T22:34:41.082Z,1
2022-10-23T22:36:33.336Z,1
2022-10-23T22:38:27.031Z,1
2022-10-23T22:40:27.083Z,1
2022-10-23T22:42:26.227Z,1
2022-10-23T22:44:30.898Z,1
2022-10-23T22:46:26.880Z,1
2022-10-23T22:48:26.087Z,1
2022-10-23T22:50:27.414Z,1
2022-10-23T22:52:30.556Z,1
2022-10-23T22:54:25.823Z,1
2022-10-23T22:56:39.292Z,1
2022-10-23T22:58:30.415Z,1
2022-10-23T23:00:33.540Z,1
2022-10-23T23:02:27.613Z,1
2022-10-23T23:04:37.112Z,1
2022-10-23T23:06:26.646Z,1
2022-10-23T23:10:33.712Z,1
2022-10-23T23:12:33.050Z,1
2022-10-23T23:14:27.186Z,1
2022-10-23T23:16:30.314Z,1
2022-10-23T23:18:26.598Z,1
2022-10-23T23:20:27.048Z,1
2022-10-23T23:22:27.811Z,1
2022-10-23T23:24:32.400Z,1
2022-10-23T23:26:26.582Z,1
2022-10-23T23:28:27.151Z,1
2022-10-23T23:30:40.224Z,1
2022-10-23T23:32:26.451Z,1
2022-10-23T23:34:27.341Z,1
2022-10-23T23:38:40.751Z,1
2022-10-23T23:40:30.518Z,1
2022-10-23T23:42:33.340Z,1
2022-10-23T23:44:26.764Z,1
2022-10-23T23:46:27.350Z,1
2022-10-23T23:48:33.473Z,1
2022-10-23T23:50:27.349Z,1
2022-10-23T23:52:33.491Z,1
2022-10-23T23:54:26.027Z,1
2022-10-23T23:58:27.069Z,1
